Time;durP1;ratioP1;P1;durP2;ratioP2;P2;SDS_P1;SDS_P2;PMS_P1;PMS_P2;Temp;Humidity;BMP_temperature;BMP_pressure;BME280_temperature;BME280_humidity;BME280_pressure;Samples;Min_cycle;Max_cycle;Signal;HPM_P1;HPM_P2
2021/03/23 04:32:43;;;;;;;17.77;10.90;;;;;;;10.15;55.63;99620.34;7316615;23;20232;-79
2021/03/23 04:36:08;;;;;;;16.10;8.97;;;;;;;10.36;53.78;99612.38;6894653;28;20303;-80
2021/03/23 04:39:29;;;;;;;17.27;9.10;;;;;;;10.31;53.89;99620.19;6878065;28;20201;-80
2021/03/23 04:42:51;;;;;;;16.83;9.50;;;;;;;10.11;54.53;99622.56;6875243;28;20236;-80
2021/03/23 04:46:15;;;;;;;16.97;9.63;;;;;;;10.15;55.15;99621.19;6860658;28;20209;-79
2021/03/23 04:49:37;;;;;;;13.83;10.10;;;;;;;10.16;55.47;99624.72;6870173;28;20731;-81
2021/03/23 04:53:01;;;;;;;23.40;10.97;;;;;;;9.75;55.56;99617.97;6861902;28;20221;-80
2021/03/23 04:56:24;;;;;;;18.10;10.97;;;;;;;9.32;57.61;99635.59;6853847;28;20625;-82
2021/03/23 04:59:45;;;;;;;18.27;10.23;;;;;;;9.28;57.37;99636.94;6842358;28;20650;-81
2021/03/23 05:03:13;;;;;;;17.33;10.97;;;;;;;9.51;57.58;99643.19;6867016;28;20228;-82
2021/03/23 05:06:36;;;;;;;17.70;11.13;;;;;;;9.63;57.69;99635.56;6868301;28;20201;-81
2021/03/23 05:09:59;;;;;;;18.27;11.40;;;;;;;9.38;57.04;99561.34;6866494;28;20212;-81
2021/03/23 05:13:23;;;;;;;14.63;10.37;;;;;;;9.67;56.70;99600.00;6840069;29;20230;-81
2021/03/23 05:16:46;;;;;;;19.53;10.43;;;;;;;9.49;57.01;99633.63;6841138;29;20218;-81
2021/03/23 05:20:08;;;;;;;19.80;10.80;;;;;;;9.30;57.73;99631.38;6842376;29;20214;-82
2021/03/23 05:23:30;;;;;;;17.33;10.63;;;;;;;9.72;57.64;99643.41;6841931;29;20234;-80
2021/03/23 05:26:54;;;;;;;15.60;10.50;;;;;;;9.83;56.58;99647.53;6841380;28;20213;-81
2021/03/23 05:30:18;;;;;;;14.23;10.00;;;;;;;9.97;56.18;99644.03;6841907;28;20206;-80
2021/03/23 05:33:39;;;;;;;19.43;10.70;;;;;;;9.85;55.75;99603.22;6841639;29;20194;-81
2021/03/23 05:37:01;;;;;;;16.77;11.17;;;;;;;10.07;55.47;99644.66;6842311;28;20261;-80
2021/03/23 05:40:26;;;;;;;18.50;11.17;;;;;;;9.95;55.62;99616.44;6841354;29;20718;-80
2021/03/23 05:44:04;;;;;;;17.23;11.10;;;;;;;9.96;55.88;99647.75;6841710;28;20700;-81
2021/03/23 05:47:32;;;;;;;24.40;12.73;;;;;;;9.91;55.44;99633.97;6846618;29;20237;-82
2021/03/23 05:51:05;;;;;;;21.40;12.50;;;;;;;10.05;55.43;99647.53;6844050;29;20233;-80
2021/03/23 05:54:48;;;;;;;19.60;11.77;;;;;;;10.08;55.25;99649.03;6842122;29;20209;-80
2021/03/23 05:58:24;;;;;;;19.10;11.93;;;;;;;9.49;56.63;99656.00;6842758;29;20685;-80
2021/03/23 06:01:49;;;;;;;24.73;12.53;;;;;;;9.47;56.97;99643.75;6851421;28;20721;-80
2021/03/23 06:05:30;;;;;;;19.00;12.07;;;;;;;9.98;56.79;99654.63;6868433;28;20197;-81
2021/03/23 06:08:51;;;;;;;18.50;11.47;;;;;;;10.18;55.46;99666.63;6883947;28;20611;-79
2021/03/23 06:12:29;;;;;;;21.60;13.17;;;;;;;10.36;54.52;99664.44;6885102;28;20232;-81
2021/03/23 06:16:07;;;;;;;27.87;15.93;;;;;;;10.10;55.75;99673.94;6875592;28;20216;-81
2021/03/23 06:19:39;;;;;;;24.23;15.17;;;;;;;9.73;55.85;99623.53;6879919;28;20215;-81
2021/03/23 06:23:29;;;;;;;22.83;13.50;;;;;;;10.23;55.49;99658.00;6893340;28;20278;-82
2021/03/23 06:26:56;;;;;;;26.17;15.17;;;;;;;10.15;55.52;99658.91;6892190;28;20219;-82
2021/03/23 06:30:39;;;;;;;28.73;16.10;;;;;;;10.18;55.51;99690.03;6893609;28;20637;-80
2021/03/23 06:34:06;;;;;;;31.30;17.43;;;;;;;10.35;55.31;99696.97;6893365;28;20197;-79
2021/03/23 06:37:29;;;;;;;29.87;16.87;;;;;;;10.57;54.47;99696.91;6892757;28;20188;-79
2021/03/23 06:41:21;;;;;;;27.50;18.20;;;;;;;10.39;54.89;99698.28;6888554;28;20243;-80
2021/03/23 06:44:44;;;;;;;26.67;15.13;;;;;;;10.45;54.63;99689.47;6843138;28;20209;-79
2021/03/23 06:48:32;;;;;;;22.80;14.63;;;;;;;10.62;54.24;99691.00;6866310;28;20240;-80
2021/03/23 06:52:25;;;;;;;21.40;12.57;;;;;;;10.64;54.50;99700.56;6831978;28;20229;-80
2021/03/23 06:55:47;;;;;;;23.83;13.13;;;;;;;10.70;54.16;99699.00;6855879;28;20197;-81
2021/03/23 06:59:16;;;;;;;25.83;14.27;;;;;;;10.45;54.03;99657.94;6845565;29;20199;-81
2021/03/23 07:02:41;;;;;;;29.13;17.97;;;;;;;10.82;54.07;99700.22;6845286;28;20375;-80
2021/03/23 07:06:13;;;;;;;27.83;15.90;;;;;;;10.99;53.43;99707.13;6845493;29;20738;-82
2021/03/23 07:09:50;;;;;;;24.27;14.17;;;;;;;10.93;52.40;99697.88;6845711;29;20258;-81
2021/03/23 07:13:33;;;;;;;29.50;17.90;;;;;;;10.88;52.47;99703.03;6846163;28;20222;-83
2021/03/23 07:17:02;;;;;;;22.77;15.30;;;;;;;10.94;53.09;99709.53;6844944;29;20278;-79
2021/03/23 07:20:41;;;;;;;22.87;14.43;;;;;;;11.03;51.68;99681.44;6854674;28;20237;-80
2021/03/23 07:24:07;;;;;;;31.70;16.80;;;;;;;10.98;52.73;99733.25;6845919;29;20210;-81
2021/03/23 07:27:32;;;;;;;28.37;17.20;;;;;;;11.14;52.43;99724.97;6843169;29;20193;-80
2021/03/23 07:31:02;;;;;;;26.67;15.30;;;;;;;11.34;51.21;99720.66;6844233;28;20241;-81
2021/03/23 07:34:26;;;;;;;25.40;17.07;;;;;;;11.10;51.91;99723.66;6854812;29;20198;-80
2021/03/23 07:37:53;;;;;;;32.83;17.43;;;;;;;11.27;51.78;99729.72;6852065;29;20225;-80
2021/03/23 07:41:23;;;;;;;31.03;16.50;;;;;;;11.22;50.80;99724.06;6845864;28;20290;-80
2021/03/23 07:44:50;;;;;;;30.43;18.17;;;;;;;10.96;51.76;99734.44;6845386;29;20230;-79
2021/03/23 07:48:15;;;;;;;28.37;17.17;;;;;;;11.42;50.23;99700.84;6846510;29;20220;-80
2021/03/23 07:51:37;;;;;;;32.07;18.50;;;;;;;10.88;51.90;99734.53;6846102;28;20604;-79
2021/03/23 07:55:00;;;;;;;38.67;17.80;;;;;;;11.44;50.78;99725.78;6845587;28;20265;-80
2021/03/23 07:58:43;;;;;;;29.97;18.40;;;;;;;11.70;50.08;99731.56;6845606;28;20213;-79
2021/03/23 08:02:26;;;;;;;33.17;17.50;;;;;;;11.50;50.05;99722.31;6843675;28;20257;-79
2021/03/23 08:05:54;;;;;;;33.47;19.67;;;;;;;11.23;50.93;99739.22;6849525;28;20690;-80
2021/03/23 08:09:53;;;;;;;37.93;20.60;;;;;;;11.14;51.36;99745.72;6844498;29;20193;-80
2021/03/23 08:13:32;;;;;;;31.80;19.27;;;;;;;11.19;50.40;99746.84;6845222;28;20240;-80
2021/03/23 08:17:05;;;;;;;32.40;19.23;;;;;;;11.20;50.54;99753.06;6844357;29;20196;-80
2021/03/23 08:21:11;;;;;;;32.87;18.73;;;;;;;10.70;51.34;99745.66;6862952;28;20213;-81
2021/03/23 08:24:46;;;;;;;31.20;19.00;;;;;;;11.41;50.19;99745.91;6838857;29;20210;-81
2021/03/23 08:28:37;;;;;;;34.40;18.37;;;;;;;11.64;48.98;99745.81;6866341;29;20194;-81
2021/03/23 08:32:07;;;;;;;35.47;19.83;;;;;;;11.60;50.02;99728.31;6860388;28;20240;-80
2021/03/23 08:35:37;;;;;;;33.27;20.17;;;;;;;12.27;47.98;99744.03;6861314;29;20201;-80
2021/03/23 08:39:19;;;;;;;33.00;18.80;;;;;;;12.27;47.51;99743.22;6852310;29;20217;-78
2021/03/23 08:42:52;;;;;;;39.20;19.23;;;;;;;12.01;48.35;99751.03;6877599;28;20233;-80
2021/03/23 08:46:24;;;;;;;36.83;20.50;;;;;;;11.49;48.95;99745.81;6857889;28;20213;-80
2021/03/23 08:49:46;;;;;;;37.23;20.97;;;;;;;11.13;50.52;99758.41;6855036;28;20221;-79
2021/03/23 08:53:42;;;;;;;28.50;19.00;;;;;;;10.40;52.13;99753.88;6877260;28;20249;-80
2021/03/23 08:57:05;;;;;;;36.80;21.30;;;;;;;11.10;51.03;99752.53;6884322;28;20205;-80
2021/03/23 09:00:55;;;;;;;32.10;19.30;;;;;;;11.07;50.63;99726.75;6869876;28;20212;-80
2021/03/23 09:04:34;;;;;;;30.97;19.07;;;;;;;11.86;49.71;99759.19;6864052;28;20201;-80
2021/03/23 09:08:18;;;;;;;27.10;18.33;;;;;;;12.13;48.04;99758.47;6868394;28;20203;-80
2021/03/23 09:12:03;;;;;;;28.97;18.03;;;;;;;12.69;46.56;99771.06;6867758;28;20315;-80
2021/03/23 09:15:27;;;;;;;33.13;18.13;;;;;;;11.69;49.30;99767.72;6868561;28;20256;-80
2021/03/23 09:19:11;;;;;;;35.77;19.73;;;;;;;12.32;48.37;99752.41;6868007;28;20623;-79
2021/03/23 09:22:38;;;;;;;29.93;18.33;;;;;;;13.04;46.19;99750.34;6869074;28;20236;-80
2021/03/23 09:26:00;;;;;;;29.87;17.83;;;;;;;13.25;45.46;99756.53;6867536;28;20544;-80
2021/03/23 09:29:42;;;;;;;25.80;18.03;;;;;;;13.67;44.18;99759.03;6868380;28;20205;-81
2021/03/23 09:33:28;;;;;;;25.17;16.63;;;;;;;13.54;44.61;99750.88;6868499;28;20321;-81
2021/03/23 09:36:50;;;;;;;26.67;16.03;;;;;;;13.86;43.83;99746.63;6867941;28;20710;-80
2021/03/23 09:40:53;;;;;;;25.03;15.87;;;;;;;13.78;43.12;99719.69;6867829;28;20296;-80
2021/03/23 09:44:40;;;;;;;21.60;13.57;;;;;;;13.47;43.17;99732.91;6867588;28;20206;-80
2021/03/23 09:48:40;;;;;;;18.53;13.07;;;;;;;13.46;42.84;99748.28;6865939;28;20190;-78
2021/03/23 09:52:10;;;;;;;21.47;12.87;;;;;;;13.57;43.33;99744.22;6867646;28;20225;-80
2021/03/23 09:55:31;;;;;;;22.63;15.00;;;;;;;12.93;44.59;99740.84;6867636;28;20193;-79
2021/03/23 09:58:58;;;;;;;18.37;12.87;;;;;;;13.77;43.01;99737.84;6867975;28;20208;-81
2021/03/23 10:02:24;;;;;;;15.53;10.33;;;;;;;14.09;39.87;99738.97;6867989;28;20240;-81
2021/03/23 10:05:58;;;;;;;15.97;10.53;;;;;;;14.30;40.35;99734.25;6866902;28;20212;-85
2021/03/23 10:09:27;;;;;;;15.33;9.97;;;;;;;14.72;39.75;99712.16;6865867;28;20567;-86
2021/03/23 10:12:48;;;;;;;11.63;8.53;;;;;;;14.70;38.43;99729.69;6866823;28;20235;-81
2021/03/23 10:16:24;;;;;;;10.87;8.30;;;;;;;14.78;37.35;99688.75;6867359;28;20206;-81
2021/03/23 10:19:50;;;;;;;14.53;10.43;;;;;;;14.54;38.88;99733.66;6864503;28;20206;-85
2021/03/23 10:23:12;;;;;;;20.93;11.33;;;;;;;14.58;39.31;99693.34;6866112;28;20277;-85
2021/03/23 10:26:37;;;;;;;17.40;11.00;;;;;;;14.95;39.28;99698.13;6853493;28;20608;-81
2021/03/23 10:30:07;;;;;;;13.93;9.40;;;;;;;14.39;37.86;99718.63;6840128;28;20188;-82
2021/03/23 10:33:30;;;;;;;10.83;8.83;;;;;;;13.96;38.23;99719.94;6892209;23;20235;-70
2021/03/23 10:36:55;;;;;;;10.17;7.73;;;;;;;14.01;37.78;99690.34;6871738;28;20642;-72
2021/03/23 10:40:36;;;;;;;11.73;7.93;;;;;;;13.54;38.50;99715.63;6894375;28;20747;-72
2021/03/23 10:44:15;;;;;;;12.33;9.00;;;;;;;13.47;38.98;99722.06;6894774;28;20211;-72
2021/03/23 10:47:39;;;;;;;12.77;9.50;;;;;;;13.97;38.39;99727.03;6893479;28;20222;-71
2021/03/23 10:51:17;;;;;;;14.13;9.77;;;;;;;13.99;38.64;99712.22;6891112;28;20214;-72
2021/03/23 10:54:39;;;;;;;15.10;9.23;;;;;;;14.11;38.35;99712.47;6893666;28;20732;-72
2021/03/23 10:58:21;;;;;;;13.73;9.30;;;;;;;14.50;37.99;99718.81;6893886;28;20225;-71
2021/03/23 11:02:05;;;;;;;11.33;8.77;;;;;;;14.15;37.65;99703.72;6892392;28;20230;-71
2021/03/23 11:05:26;;;;;;;14.97;8.47;;;;;;;13.56;37.79;99616.00;6893133;28;20206;-72
2021/03/23 11:08:47;;;;;;;12.87;8.87;;;;;;;13.31;38.23;99689.88;6893847;28;20204;-72
2021/03/23 11:12:09;;;;;;;19.17;11.47;;;;;;;13.41;39.07;99669.53;6893450;28;20201;-72
2021/03/23 11:15:37;;;;;;;10.07;6.97;;;;;;;13.33;37.95;99699.47;6893352;28;20217;-71
2021/03/23 11:19:01;;;;;;;11.10;7.70;;;;;;;14.17;36.45;99673.69;6893108;28;20209;-72
2021/03/23 11:22:26;;;;;;;12.87;7.03;;;;;;;13.42;37.97;99719.09;6892034;28;20598;-71
2021/03/23 11:25:48;;;;;;;12.73;8.13;;;;;;;13.85;38.13;99709.69;6865335;28;20294;-67
2021/03/23 11:29:10;;;;;;;12.93;8.23;;;;;;;13.65;38.13;99704.22;6866205;28;20273;-70
2021/03/23 11:36:19;;;;;;;10.17;7.90;;;;;;;12.68;40.31;99698.22;6866170;28;20587;-71
2021/03/23 11:39:40;;;;;;;12.17;8.13;;;;;;;12.40;40.69;99700.06;6849076;28;20218;-72
2021/03/23 11:43:02;;;;;;;10.50;7.83;;;;;;;12.69;40.46;99703.41;6867187;28;20226;-72
2021/03/23 11:46:46;;;;;;;14.90;9.23;;;;;;;12.89;39.51;99671.94;6866266;28;20251;-73
2021/03/23 11:50:10;;;;;;;11.10;8.70;;;;;;;12.33;39.95;99678.34;6868518;28;20671;-73
2021/03/23 11:53:33;;;;;;;14.87;8.23;;;;;;;13.38;39.06;99712.41;6870661;28;20277;-72
2021/03/23 11:56:55;;;;;;;14.30;8.87;;;;;;;12.77;39.56;99705.13;6870165;28;20215;-72
2021/03/23 12:00:18;;;;;;;12.23;8.57;;;;;;;13.51;38.58;99671.84;6870671;28;20234;-73
2021/03/23 12:03:41;;;;;;;12.57;8.57;;;;;;;13.66;38.16;99694.19;6868716;28;20233;-73
2021/03/23 12:07:05;;;;;;;8.90;6.97;;;;;;;12.66;38.44;99698.41;6869510;28;20239;-73
2021/03/23 12:10:34;;;;;;;11.47;7.03;;;;;;;12.83;38.04;99652.94;6870674;28;20216;-72
2021/03/23 12:14:10;;;;;;;12.83;8.17;;;;;;;13.16;37.78;99646.69;6871913;28;20615;-72
2021/03/23 12:17:35;;;;;;;8.50;7.33;;;;;;;13.13;38.19;99655.22;6870903;28;20357;-72
2021/03/23 12:21:00;;;;;;;14.47;9.47;;;;;;;13.52;37.82;99706.84;6870821;28;20232;-71
2021/03/23 12:24:22;;;;;;;14.53;8.70;;;;;;;13.49;38.42;99709.97;6868148;28;20224;-72
2021/03/23 12:27:45;;;;;;;15.63;9.83;;;;;;;12.75;40.03;99705.34;6842540;28;20321;-73
2021/03/23 12:31:06;;;;;;;15.27;9.03;;;;;;;13.10;39.12;99652.91;6843963;28;20258;-73
2021/03/23 12:34:28;;;;;;;11.30;7.80;;;;;;;13.52;38.09;99696.03;6842998;28;20736;-73
2021/03/23 12:37:52;;;;;;;13.57;7.57;;;;;;;13.81;37.48;99706.53;6841993;28;20246;-73
2021/03/23 12:41:16;;;;;;;14.83;10.07;;;;;;;13.26;38.06;99668.81;6842922;29;20655;-73
2021/03/23 12:44:38;;;;;;;12.67;9.33;;;;;;;13.52;37.74;99682.47;6843918;28;20216;-72
2021/03/23 12:47:59;;;;;;;11.03;8.90;;;;;;;14.04;37.31;99671.78;6843426;29;20295;-72
2021/03/23 12:51:23;;;;;;;12.47;9.17;;;;;;;13.64;37.33;99686.25;6843783;28;20244;-72
2021/03/23 12:54:46;;;;;;;12.77;9.00;;;;;;;13.73;37.91;99655.25;6843681;28;20206;-72
2021/03/23 12:58:13;;;;;;;15.63;9.40;;;;;;;14.06;36.12;99604.63;6847089;28;20199;-72
2021/03/23 13:01:36;;;;;;;14.90;10.13;;;;;;;14.54;36.53;99675.81;6841668;29;20228;-72
2021/03/23 13:04:58;;;;;;;13.83;9.87;;;;;;;14.36;36.33;99649.31;6842816;29;20223;-72
2021/03/23 13:08:23;;;;;;;14.47;10.10;;;;;;;13.45;37.81;99654.53;6843168;29;20352;-72
2021/03/23 13:11:49;;;;;;;17.80;11.00;;;;;;;12.86;38.92;99660.66;6844184;29;20213;-71
2021/03/23 13:15:12;;;;;;;16.70;10.93;;;;;;;13.08;38.90;99613.53;6841757;29;20228;-72
2021/03/23 13:18:34;;;;;;;16.00;10.90;;;;;;;14.08;37.89;99666.78;6843136;28;20222;-72
2021/03/23 13:21:59;;;;;;;15.10;10.77;;;;;;;14.62;37.24;99648.47;6842843;29;20253;-72
2021/03/23 13:25:30;;;;;;;18.10;12.23;;;;;;;13.88;37.93;99668.63;6841362;28;20326;-72
2021/03/23 13:28:57;;;;;;;17.03;11.67;;;;;;;12.93;39.50;99626.34;6842323;28;20206;-72
2021/03/23 13:32:19;;;;;;;16.10;11.37;;;;;;;14.06;37.38;99612.78;6842118;28;20273;-73
2021/03/23 13:35:42;;;;;;;16.97;11.50;;;;;;;14.08;36.92;99602.53;6841222;29;20212;-72
2021/03/23 13:39:07;;;;;;;17.33;12.20;;;;;;;14.27;37.74;99676.88;6841931;29;20217;-72
2021/03/23 13:42:30;;;;;;;13.67;10.43;;;;;;;14.67;36.82;99659.50;6841674;28;20235;-72
2021/03/23 13:45:55;;;;;;;15.17;11.13;;;;;;;14.73;36.83;99637.81;6840531;29;20210;-72
2021/03/23 13:49:16;;;;;;;16.00;10.43;;;;;;;14.71;36.55;99607.31;6841296;29;20216;-72
2021/03/23 13:52:43;;;;;;;16.67;11.27;;;;;;;14.79;36.77;99623.38;6840920;29;20337;-72
2021/03/23 13:56:05;;;;;;;16.07;11.53;;;;;;;14.78;36.01;99615.44;6840179;29;20306;-73
2021/03/23 13:59:26;;;;;;;15.17;10.40;;;;;;;14.30;36.33;99642.03;6840538;28;20259;-72
2021/03/23 14:02:52;;;;;;;18.13;10.83;;;;;;;15.09;35.85;99640.00;6838849;28;20231;-72
2021/03/23 14:06:17;;;;;;;16.30;11.10;;;;;;;14.31;36.43;99547.88;6836850;28;20212;-72
2021/03/23 14:09:42;;;;;;;13.50;10.40;;;;;;;14.96;35.58;99593.88;6840501;29;20275;-72
2021/03/23 14:13:04;;;;;;;17.63;11.60;;;;;;;14.37;36.31;99639.28;6840337;29;20535;-71
2021/03/23 14:16:26;;;;;;;15.60;10.53;;;;;;;13.99;37.30;99630.06;6839762;29;20211;-72
2021/03/23 14:19:47;;;;;;;16.73;10.93;;;;;;;14.85;35.98;99629.81;6839965;29;20216;-71
2021/03/23 14:23:13;;;;;;;13.73;10.10;;;;;;;15.33;34.71;99621.16;6840304;28;20259;-72
2021/03/23 14:26:36;;;;;;;15.40;11.20;;;;;;;15.05;35.69;99573.59;6838936;28;20210;-72
2021/03/23 14:29:57;;;;;;;15.77;10.30;;;;;;;14.61;35.77;99616.94;6840545;29;20612;-71
2021/03/23 14:33:19;;;;;;;14.53;10.17;;;;;;;14.39;36.25;99553.13;6840320;29;20221;-71
2021/03/23 14:36:43;;;;;;;13.63;10.47;;;;;;;14.88;35.78;99603.13;6840307;28;20209;-71
2021/03/23 14:40:05;;;;;;;13.83;10.00;;;;;;;14.33;36.08;99595.47;6839920;29;20209;-71
2021/03/23 14:43:29;;;;;;;16.07;11.10;;;;;;;14.08;37.10;99578.13;6840795;28;20238;-71
2021/03/23 14:46:50;;;;;;;16.90;10.37;;;;;;;15.12;35.44;99590.69;6840446;28;20218;-71
2021/03/23 14:50:12;;;;;;;15.33;10.30;;;;;;;15.29;34.40;99589.97;6840494;29;20206;-71
2021/03/23 14:53:37;;;;;;;15.60;10.97;;;;;;;15.43;35.06;99613.38;6840329;29;20658;-73
2021/03/23 14:56:59;;;;;;;12.90;10.13;;;;;;;15.21;34.70;99603.00;6839519;28;20661;-71
2021/03/23 15:00:30;;;;;;;14.87;10.17;;;;;;;15.26;34.65;99614.03;6840020;28;20244;-71
2021/03/23 15:03:51;;;;;;;14.97;10.40;;;;;;;14.86;34.62;99560.94;6838287;29;20230;-71
2021/03/23 15:07:19;;;;;;;16.37;10.40;;;;;;;15.22;34.72;99621.78;6839574;28;20215;-71
2021/03/23 15:10:41;;;;;;;14.77;9.53;;;;;;;14.95;35.65;99616.66;6839994;28;20712;-71
2021/03/23 15:14:03;;;;;;;14.83;10.30;;;;;;;13.93;36.79;99612.72;6840573;28;20219;-71
2021/03/23 15:17:26;;;;;;;16.33;10.07;;;;;;;13.30;37.69;99617.78;6843619;29;20230;-71
2021/03/23 15:20:47;;;;;;;17.97;11.00;;;;;;;13.77;37.29;99604.16;6845305;28;20240;-71
2021/03/23 15:24:18;;;;;;;14.97;10.53;;;;;;;14.09;36.12;99614.22;6844461;28;20227;-71
2021/03/23 15:27:40;;;;;;;17.20;9.63;;;;;;;13.97;37.01;99597.72;6844584;29;20279;-71
2021/03/23 15:31:03;;;;;;;17.00;10.73;;;;;;;14.20;36.26;99578.34;6845672;29;20305;-72
2021/03/23 15:34:25;;;;;;;13.63;9.40;;;;;;;14.64;35.95;99597.53;6844737;29;20207;-71
2021/03/23 15:37:47;;;;;;;15.90;10.37;;;;;;;14.85;35.24;99592.66;6844719;29;20555;-72
2021/03/23 15:41:09;;;;;;;17.20;10.30;;;;;;;14.07;36.90;99551.22;6845133;29;20234;-72
2021/03/23 15:44:31;;;;;;;17.70;11.27;;;;;;;15.03;35.50;99605.53;6844671;29;20211;-72
2021/03/23 15:47:52;;;;;;;18.97;10.73;;;;;;;14.81;35.41;99615.03;6844057;29;20216;-72
2021/03/23 15:51:25;;;;;;;15.70;10.77;;;;;;;14.42;35.74;99585.22;6851559;28;20258;-72
2021/03/23 15:54:46;;;;;;;14.93;10.10;;;;;;;14.46;36.02;99554.75;6871139;28;20210;-72
2021/03/23 15:58:08;;;;;;;18.93;11.30;;;;;;;14.68;35.68;99555.34;6871192;28;20215;-72
2021/03/23 16:01:30;;;;;;;15.37;10.50;;;;;;;14.56;36.13;99548.88;6869414;28;20239;-72
2021/03/23 16:04:51;;;;;;;12.83;10.17;;;;;;;14.79;36.30;99603.53;6870580;28;20195;-72
2021/03/23 16:08:16;;;;;;;13.20;9.80;;;;;;;14.72;35.85;99562.00;6870989;28;20208;-72
2021/03/23 16:11:37;;;;;;;15.67;10.20;;;;;;;14.40;36.27;99552.06;6870573;28;20216;-71
2021/03/23 16:14:58;;;;;;;14.60;10.30;;;;;;;14.59;35.25;99560.16;6870005;28;20630;-72
2021/03/23 16:18:21;;;;;;;17.63;11.03;;;;;;;14.45;36.49;99612.78;6869914;28;20208;-72
2021/03/23 16:21:42;;;;;;;16.77;10.97;;;;;;;14.28;36.36;99565.41;6869178;28;20236;-72
2021/03/23 16:25:07;;;;;;;16.20;10.80;;;;;;;13.92;37.09;99547.91;6869101;28;20275;-72
2021/03/23 16:28:31;;;;;;;16.10;10.27;;;;;;;14.10;37.04;99584.16;6871130;28;20224;-71
2021/03/23 16:31:55;;;;;;;13.60;10.00;;;;;;;13.02;37.38;99558.34;6866909;28;20217;-71
2021/03/23 16:35:21;;;;;;;12.30;9.50;;;;;;;13.61;37.15;99512.41;6868735;28;20204;-72
2021/03/23 16:38:42;;;;;;;15.10;11.27;;;;;;;13.69;36.97;99571.84;6866368;28;20217;-72
2021/03/23 16:42:06;;;;;;;17.87;11.03;;;;;;;13.95;36.53;99607.97;6866935;28;20230;-72
2021/03/23 16:45:29;;;;;;;17.07;11.37;;;;;;;14.12;37.00;99614.66;6865151;28;20267;-71
2021/03/23 16:48:56;;;;;;;16.97;10.83;;;;;;;13.54;37.06;99558.50;6867321;28;20652;-72
2021/03/23 16:52:20;;;;;;;17.13;10.37;;;;;;;13.92;37.44;99577.72;6866194;28;20206;-72
2021/03/23 16:55:43;;;;;;;15.53;10.03;;;;;;;13.78;37.00;99582.28;6865125;28;20301;-72
2021/03/23 16:59:08;;;;;;;14.37;10.37;;;;;;;13.81;37.05;99640.69;6866019;28;20205;-72
2021/03/23 17:02:29;;;;;;;17.00;10.63;;;;;;;13.22;38.18;99645.06;6865700;28;20753;-72
2021/03/23 17:05:53;;;;;;;13.40;10.13;;;;;;;12.58;39.77;99627.38;6868597;28;20209;-72
2021/03/23 17:09:14;;;;;;;13.83;9.50;;;;;;;13.21;37.66;99581.13;6870053;28;20205;-71
2021/03/23 17:12:36;;;;;;;15.13;10.63;;;;;;;13.67;38.22;99647.09;6869431;28;20251;-72
2021/03/23 17:15:58;;;;;;;14.17;10.37;;;;;;;13.55;37.71;99633.31;6868933;28;20205;-72
2021/03/23 17:19:20;;;;;;;19.37;10.53;;;;;;;13.87;37.41;99639.84;6868481;28;20293;-72
2021/03/23 17:22:41;;;;;;;14.27;10.33;;;;;;;13.91;38.05;99641.09;6868898;28;20238;-72
2021/03/23 17:26:03;;;;;;;13.60;10.33;;;;;;;13.09;38.18;99590.84;6867269;28;20214;-72
2021/03/23 17:29:25;;;;;;;13.87;10.77;;;;;;;13.71;37.66;99651.06;6867443;28;20703;-73
2021/03/23 17:32:50;;;;;;;13.70;10.17;;;;;;;13.42;37.21;99578.25;6868773;28;20667;-72
2021/03/23 17:36:15;;;;;;;15.23;10.07;;;;;;;13.66;37.54;99613.75;6868880;28;20216;-72
2021/03/23 17:39:37;;;;;;;15.40;10.90;;;;;;;13.87;37.44;99623.59;6868773;28;20283;-72
2021/03/23 17:42:59;;;;;;;17.73;11.27;;;;;;;13.86;38.77;99640.91;6863684;28;20237;-72
2021/03/23 17:46:21;;;;;;;16.47;11.23;;;;;;;13.59;38.81;99587.66;6868678;28;20299;-72
2021/03/23 17:49:43;;;;;;;14.90;9.87;;;;;;;13.81;38.46;99591.88;6869317;28;20209;-72
2021/03/23 17:53:04;;;;;;;18.70;11.40;;;;;;;13.81;38.60;99594.59;6868896;28;20209;-72
2021/03/23 17:56:26;;;;;;;15.13;11.03;;;;;;;13.78;39.03;99597.69;6869408;28;20210;-73
2021/03/23 17:59:47;;;;;;;18.50;11.67;;;;;;;13.58;39.70;99656.44;6869047;28;20663;-72
2021/03/23 18:03:16;;;;;;;14.00;10.13;;;;;;;13.35;40.80;99634.28;6868282;28;20226;-72
2021/03/23 18:06:38;;;;;;;22.17;11.03;;;;;;;13.36;40.18;99612.41;6868248;28;20208;-73
2021/03/23 18:09:59;;;;;;;15.87;10.50;;;;;;;13.37;40.67;99662.84;6868248;28;20236;-70
2021/03/23 18:13:24;;;;;;;16.87;10.77;;;;;;;12.62;41.72;99612.44;6868443;28;20214;-72
2021/03/23 18:16:46;;;;;;;14.37;10.37;;;;;;;12.52;42.19;99641.69;6866973;28;20564;-72
2021/03/23 18:20:10;;;;;;;13.70;9.93;;;;;;;12.73;41.81;99620.81;6867509;28;20235;-72
2021/03/23 18:23:32;;;;;;;13.77;9.80;;;;;;;13.01;41.34;99610.81;6867459;28;20698;-74
2021/03/23 18:26:54;;;;;;;18.40;10.83;;;;;;;12.55;42.69;99620.50;6866620;28;20534;-73
2021/03/23 18:30:17;;;;;;;13.83;10.00;;;;;;;11.80;44.84;99638.34;6867672;28;20312;-72
2021/03/23 18:33:40;;;;;;;13.50;10.27;;;;;;;12.73;42.92;99666.81;6860062;28;20240;-72
2021/03/23 18:37:01;;;;;;;17.60;11.63;;;;;;;12.27;43.68;99610.72;6882429;28;20271;-73
2021/03/23 18:40:27;;;;;;;18.93;12.17;;;;;;;12.26;44.55;99655.84;6884230;28;20208;-73
2021/03/23 18:43:48;;;;;;;19.17;11.43;;;;;;;12.28;44.04;99683.50;6894198;28;20303;-74
2021/03/23 18:47:09;;;;;;;17.50;11.83;;;;;;;11.91;44.10;99631.59;6894117;28;20215;-74
2021/03/23 18:50:30;;;;;;;16.00;12.23;;;;;;;12.44;44.04;99675.13;6893673;28;20222;-74
2021/03/23 18:53:52;;;;;;;14.37;10.27;;;;;;;12.24;44.25;99670.59;6873288;28;20197;-74
2021/03/23 18:57:14;;;;;;;17.73;11.57;;;;;;;11.91;44.65;99656.75;6867008;28;20641;-74
2021/03/23 19:00:37;;;;;;;15.03;11.10;;;;;;;11.97;45.12;99693.81;6868020;28;20674;-75
2021/03/23 19:03:58;;;;;;;16.13;11.37;;;;;;;11.99;44.82;99688.22;6865795;28;20232;-75
2021/03/23 19:07:20;;;;;;;14.33;10.57;;;;;;;11.82;45.13;99665.19;6867275;28;20232;-76
2021/03/23 19:10:42;;;;;;;16.67;11.40;;;;;;;11.76;45.07;99674.88;6869296;28;20299;-75
2021/03/23 19:14:04;;;;;;;15.73;11.70;;;;;;;11.32;45.32;99628.25;6889010;28;20204;-74
2021/03/23 19:17:25;;;;;;;14.53;10.73;;;;;;;11.31;46.20;99683.25;6893002;28;20357;-74
2021/03/23 19:20:47;;;;;;;17.70;10.43;;;;;;;11.15;45.12;99656.47;6893552;28;20721;-73
2021/03/23 19:24:09;;;;;;;13.83;10.60;;;;;;;10.89;45.49;99656.13;6895469;28;20240;-73
2021/03/23 19:27:30;;;;;;;13.00;10.40;;;;;;;11.11;45.46;99692.94;6864097;28;20209;-73
2021/03/23 19:30:53;;;;;;;18.37;11.23;;;;;;;10.48;46.16;99641.41;6868042;28;20227;-74
2021/03/23 19:34:15;;;;;;;15.00;10.23;;;;;;;10.11;46.40;99627.13;6868046;28;20205;-72
2021/03/23 19:37:36;;;;;;;16.03;10.63;;;;;;;10.00;47.78;99692.19;6857795;28;20209;-73
2021/03/23 19:40:59;;;;;;;12.90;9.30;;;;;;;10.03;47.80;99678.34;6851606;28;20229;-72
2021/03/23 19:44:20;;;;;;;13.77;10.03;;;;;;;9.83;48.46;99702.25;6844319;28;20244;-72
2021/03/23 19:47:43;;;;;;;13.53;10.53;;;;;;;9.80;47.45;99667.56;6841212;28;20209;-73
2021/03/23 19:51:06;;;;;;;17.10;13.17;;;;;;;9.32;48.76;99685.84;6841401;29;20234;-72
2021/03/23 19:54:30;;;;;;;17.13;11.13;;;;;;;8.76;49.99;99707.59;6840335;29;20205;-76
2021/03/23 19:57:51;;;;;;;15.07;10.80;;;;;;;8.36;50.69;99658.47;6839606;29;20704;-72
2021/03/23 20:01:13;;;;;;;17.33;11.63;;;;;;;8.20;50.99;99648.56;6840943;28;20222;-73
2021/03/23 20:04:36;;;;;;;15.57;12.30;;;;;;;8.81;50.31;99707.06;6844045;28;20214;-72
2021/03/23 20:07:58;;;;;;;15.73;10.40;;;;;;;8.53;49.95;99635.91;6845321;28;20212;-71
2021/03/23 20:11:19;;;;;;;15.97;10.47;;;;;;;8.45;49.86;99631.41;6870681;28;20268;-72
2021/03/23 20:14:41;;;;;;;15.40;10.53;;;;;;;8.37;51.63;99692.38;6870017;28;20213;-72
2021/03/23 20:18:03;;;;;;;14.93;10.07;;;;;;;8.34;51.73;99709.69;6849403;28;20210;-72
2021/03/23 20:21:25;;;;;;;14.30;9.67;;;;;;;7.60;52.19;99644.50;6870011;28;20194;-72
2021/03/23 20:24:47;;;;;;;17.80;9.80;;;;;;;7.80;51.58;99655.75;6868266;28;20237;-72
2021/03/23 20:28:08;;;;;;;15.07;10.30;;;;;;;7.94;51.95;99674.72;6869360;28;20663;-73